sensor_id;sensor_type;location;lat;lon;timestamp;P1;durP1;ratioP1;P2;durP2;ratioP2
68479;SDS011;55469;48.934;12.050;2023-01-16T00:01:29;1.25;;;0.60;;
68479;SDS011;55469;48.934;12.050;2023-01-16T00:03:55;0.65;;;0.50;;
68479;SDS011;55469;48.934;12.050;2023-01-16T00:10:02;0.73;;;0.63;;
68479;SDS011;55469;48.934;12.050;2023-01-16T00:16:10;1.15;;;1.00;;
68479;SDS011;55469;48.934;12.050;2023-01-16T00:18:36;0.68;;;0.60;;
68479;SDS011;55469;48.934;12.050;2023-01-16T00:24:43;1.13;;;0.50;;
68479;SDS011;55469;48.934;12.050;2023-01-16T00:27:09;1.05;;;0.70;;
68479;SDS011;55469;48.934;12.050;2023-01-16T00:29:34;0.70;;;0.60;;
68479;SDS011;55469;48.934;12.050;2023-01-16T00:32:00;0.63;;;0.57;;
68479;SDS011;55469;48.934;12.050;2023-01-16T00:37:16;0.50;;;0.50;;
68479;SDS011;55469;48.934;12.050;2023-01-16T00:43:20;1.90;;;0.70;;
68479;SDS011;55469;48.934;12.050;2023-01-16T00:45:46;0.50;;;0.50;;
68479;SDS011;55469;48.934;12.050;2023-01-16T00:48:12;0.85;;;0.65;;
68479;SDS011;55469;48.934;12.050;2023-01-16T00:54:25;1.80;;;0.80;;
68479;SDS011;55469;48.934;12.050;2023-01-16T00:56:51;1.10;;;0.80;;
68479;SDS011;55469;48.934;12.050;2023-01-16T00:59:17;0.82;;;0.52;;
68479;SDS011;55469;48.934;12.050;2023-01-16T01:01:43;1.17;;;0.65;;
68479;SDS011;55469;48.934;12.050;2023-01-16T01:07:08;0.70;;;0.60;;
68479;SDS011;55469;48.934;12.050;2023-01-16T01:13:15;0.60;;;0.60;;
68479;SDS011;55469;48.934;12.050;2023-01-16T01:15:40;0.68;;;0.57;;
68479;SDS011;55469;48.934;12.050;2023-01-16T01:21:47;0.52;;;0.50;;
68479;SDS011;55469;48.934;12.050;2023-01-16T01:27:54;0.73;;;0.70;;
68479;SDS011;55469;48.934;12.050;2023-01-16T01:30:20;0.70;;;0.60;;
68479;SDS011;55469;48.934;12.050;2023-01-16T01:36:26;0.65;;;0.60;;
68479;SDS011;55469;48.934;12.050;2023-01-16T01:42:37;0.80;;;0.60;;
68479;SDS011;55469;48.934;12.050;2023-01-16T01:45:21;0.50;;;0.50;;
68479;SDS011;55469;48.934;12.050;2023-01-16T01:48:02;0.88;;;0.47;;
68479;SDS011;55469;48.934;12.050;2023-01-16T01:54:18;0.90;;;0.60;;
68479;SDS011;55469;48.934;12.050;2023-01-16T01:56:53;0.55;;;0.40;;
68479;SDS011;55469;48.934;12.050;2023-01-16T02:03:07;1.20;;;0.50;;
68479;SDS011;55469;48.934;12.050;2023-01-16T02:05:39;0.50;;;0.50;;
68479;SDS011;55469;48.934;12.050;2023-01-16T02:11:55;0.70;;;0.50;;
68479;SDS011;55469;48.934;12.050;2023-01-16T02:14:33;1.15;;;0.60;;
68479;SDS011;55469;48.934;12.050;2023-01-16T02:21:03;0.47;;;0.47;;
68479;SDS011;55469;48.934;12.050;2023-01-16T02:42:44;0.30;;;0.30;;
68479;SDS011;55469;48.934;12.050;2023-01-16T02:48:45;0.55;;;0.40;;
68479;SDS011;55469;48.934;12.050;2023-01-16T02:57:27;0.40;;;0.40;;
68479;SDS011;55469;48.934;12.050;2023-01-16T03:03:41;0.38;;;0.38;;
68479;SDS011;55469;48.934;12.050;2023-01-16T03:18:29;0.70;;;0.35;;
68479;SDS011;55469;48.934;12.050;2023-01-16T03:27:30;0.50;;;0.50;;
68479;SDS011;55469;48.934;12.050;2023-01-16T03:30:12;0.55;;;0.40;;
68479;SDS011;55469;48.934;12.050;2023-01-16T03:38:54;0.90;;;0.55;;
68479;SDS011;55469;48.934;12.050;2023-01-16T03:41:23;0.90;;;0.60;;
68479;SDS011;55469;48.934;12.050;2023-01-16T03:47:37;0.40;;;0.40;;
68479;SDS011;55469;48.934;12.050;2023-01-16T03:59:49;1.17;;;0.50;;
68479;SDS011;55469;48.934;12.050;2023-01-16T04:06:17;0.77;;;0.52;;
68479;SDS011;55469;48.934;12.050;2023-01-16T04:12:13;1.05;;;0.50;;
68479;SDS011;55469;48.934;12.050;2023-01-16T04:14:45;0.40;;;0.40;;
68479;SDS011;55469;48.934;12.050;2023-01-16T04:23:53;1.13;;;0.40;;
68479;SDS011;55469;48.934;12.050;2023-01-16T04:26:21;0.55;;;0.40;;
68479;SDS011;55469;48.934;12.050;2023-01-16T04:28:47;0.30;;;0.30;;
68479;SDS011;55469;48.934;12.050;2023-01-16T04:34:58;0.70;;;0.40;;
68479;SDS011;55469;48.934;12.050;2023-01-16T04:41:05;0.40;;;0.40;;
68479;SDS011;55469;48.934;12.050;2023-01-16T04:43:31;0.70;;;0.50;;
68479;SDS011;55469;48.934;12.050;2023-01-16T04:49:37;1.70;;;0.60;;
68479;SDS011;55469;48.934;12.050;2023-01-16T04:55:44;1.58;;;0.40;;
68479;SDS011;55469;48.934;12.050;2023-01-16T04:58:10;0.50;;;0.50;;
68479;SDS011;55469;48.934;12.050;2023-01-16T05:00:36;0.40;;;0.38;;
68479;SDS011;55469;48.934;12.050;2023-01-16T05:03:01;0.57;;;0.45;;
68479;SDS011;55469;48.934;12.050;2023-01-16T05:08:40;0.40;;;0.40;;
68479;SDS011;55469;48.934;12.050;2023-01-16T05:14:47;0.50;;;0.50;;
68479;SDS011;55469;48.934;12.050;2023-01-16T05:17:12;1.55;;;0.50;;
68479;SDS011;55469;48.934;12.050;2023-01-16T05:19:38;0.65;;;0.50;;
68479;SDS011;55469;48.934;12.050;2023-01-16T05:25:45;0.73;;;0.65;;
68479;SDS011;55469;48.934;12.050;2023-01-16T05:28:10;0.30;;;0.30;;
68479;SDS011;55469;48.934;12.050;2023-01-16T05:34:17;0.40;;;0.38;;
68479;SDS011;55469;48.934;12.050;2023-01-16T05:36:43;0.95;;;0.40;;
68479;SDS011;55469;48.934;12.050;2023-01-16T05:39:24;0.40;;;0.38;;
68479;SDS011;55469;48.934;12.050;2023-01-16T05:41:50;0.40;;;0.40;;
68479;SDS011;55469;48.934;12.050;2023-01-16T05:47:38;1.35;;;0.50;;
68479;SDS011;55469;48.934;12.050;2023-01-16T05:50:04;0.47;;;0.38;;
68479;SDS011;55469;48.934;12.050;2023-01-16T05:52:31;1.20;;;0.43;;
68479;SDS011;55469;48.934;12.050;2023-01-16T05:58:38;1.00;;;0.50;;
68479;SDS011;55469;48.934;12.050;2023-01-16T06:01:03;0.50;;;0.40;;
68479;SDS011;55469;48.934;12.050;2023-01-16T06:03:30;0.73;;;0.50;;
68479;SDS011;55469;48.934;12.050;2023-01-16T06:05:55;0.60;;;0.50;;
68479;SDS011;55469;48.934;12.050;2023-01-16T06:11:11;0.38;;;0.38;;
68479;SDS011;55469;48.934;12.050;2023-01-16T06:13:37;0.30;;;0.30;;
68479;SDS011;55469;48.934;12.050;2023-01-16T06:19:44;0.50;;;0.45;;
68479;SDS011;55469;48.934;12.050;2023-01-16T06:22:11;1.00;;;0.63;;
68479;SDS011;55469;48.934;12.050;2023-01-16T06:28:19;0.32;;;0.32;;
68479;SDS011;55469;48.934;12.050;2023-01-16T06:30:49;1.50;;;0.52;;
68479;SDS011;55469;48.934;12.050;2023-01-16T06:36:58;1.85;;;0.50;;
68479;SDS011;55469;48.934;12.050;2023-01-16T06:39:24;0.40;;;0.40;;
68479;SDS011;55469;48.934;12.050;2023-01-16T06:41:49;0.50;;;0.45;;
68479;SDS011;55469;48.934;12.050;2023-01-16T06:44:15;2.90;;;0.85;;
68479;SDS011;55469;48.934;12.050;2023-01-16T06:46:41;0.50;;;0.50;;
68479;SDS011;55469;48.934;12.050;2023-01-16T06:49:06;0.60;;;0.60;;
68479;SDS011;55469;48.934;12.050;2023-01-16T06:51:34;0.60;;;0.50;;
68479;SDS011;55469;48.934;12.050;2023-01-16T06:54:00;0.60;;;0.50;;
68479;SDS011;55469;48.934;12.050;2023-01-16T06:56:28;0.63;;;0.40;;
68479;SDS011;55469;48.934;12.050;2023-01-16T06:58:54;1.17;;;0.50;;
68479;SDS011;55469;48.934;12.050;2023-01-16T07:01:20;0.88;;;0.70;;
68479;SDS011;55469;48.934;12.050;2023-01-16T07:03:46;0.63;;;0.50;;
68479;SDS011;55469;48.934;12.050;2023-01-16T07:06:12;1.05;;;0.55;;
68479;SDS011;55469;48.934;12.050;2023-01-16T07:08:38;0.63;;;0.40;;
68479;SDS011;55469;48.934;12.050;2023-01-16T07:11:03;0.52;;;0.50;;
68479;SDS011;55469;48.934;12.050;2023-01-16T07:13:29;0.75;;;0.50;;
68479;SDS011;55469;48.934;12.050;2023-01-16T07:15:55;1.05;;;0.60;;
68479;SDS011;55469;48.934;12.050;2023-01-16T07:18:40;0.47;;;0.47;;
68479;SDS011;55469;48.934;12.050;2023-01-16T07:21:25;2.95;;;1.00;;
68479;SDS011;55469;48.934;12.050;2023-01-16T07:24:12;1.00;;;0.90;;
68479;SDS011;55469;48.934;12.050;2023-01-16T07:26:44;2.38;;;1.20;;
68479;SDS011;55469;48.934;12.050;2023-01-16T07:29:15;1.15;;;1.05;;
68479;SDS011;55469;48.934;12.050;2023-01-16T07:31:40;1.73;;;1.00;;
68479;SDS011;55469;48.934;12.050;2023-01-16T07:34:06;2.83;;;1.20;;
68479;SDS011;55469;48.934;12.050;2023-01-16T07:36:32;2.65;;;1.00;;
68479;SDS011;55469;48.934;12.050;2023-01-16T07:38:57;1.65;;;1.10;;
68479;SDS011;55469;48.934;12.050;2023-01-16T07:41:23;2.15;;;0.98;;
68479;SDS011;55469;48.934;12.050;2023-01-16T07:43:49;2.47;;;1.00;;
68479;SDS011;55469;48.934;12.050;2023-01-16T07:46:15;1.70;;;1.10;;
68479;SDS011;55469;48.934;12.050;2023-01-16T07:48:41;1.63;;;0.90;;
68479;SDS011;55469;48.934;12.050;2023-01-16T07:51:07;1.80;;;1.00;;
68479;SDS011;55469;48.934;12.050;2023-01-16T07:53:32;3.78;;;1.00;;
68479;SDS011;55469;48.934;12.050;2023-01-16T07:55:59;1.13;;;0.90;;
68479;SDS011;55469;48.934;12.050;2023-01-16T07:58:27;1.88;;;0.80;;
68479;SDS011;55469;48.934;12.050;2023-01-16T08:00:55;1.10;;;0.98;;
68479;SDS011;55469;48.934;12.050;2023-01-16T08:03:22;1.05;;;0.98;;
68479;SDS011;55469;48.934;12.050;2023-01-16T08:05:49;1.10;;;1.00;;
68479;SDS011;55469;48.934;12.050;2023-01-16T08:08:20;2.03;;;1.02;;
68479;SDS011;55469;48.934;12.050;2023-01-16T08:10:45;0.98;;;0.90;;
68479;SDS011;55469;48.934;12.050;2023-01-16T08:13:11;0.90;;;0.80;;
68479;SDS011;55469;48.934;12.050;2023-01-16T08:15:37;1.20;;;1.00;;
68479;SDS011;55469;48.934;12.050;2023-01-16T08:18:03;0.80;;;0.77;;
68479;SDS011;55469;48.934;12.050;2023-01-16T08:20:28;1.17;;;0.80;;
68479;SDS011;55469;48.934;12.050;2023-01-16T08:22:54;1.95;;;1.00;;
68479;SDS011;55469;48.934;12.050;2023-01-16T08:25:22;1.13;;;0.88;;
68479;SDS011;55469;48.934;12.050;2023-01-16T08:27:49;1.80;;;1.00;;
68479;SDS011;55469;48.934;12.050;2023-01-16T08:30:15;2.45;;;1.10;;
68479;SDS011;55469;48.934;12.050;2023-01-16T08:32:42;1.00;;;0.90;;
68479;SDS011;55469;48.934;12.050;2023-01-16T08:35:08;1.40;;;1.10;;
68479;SDS011;55469;48.934;12.050;2023-01-16T08:37:34;1.63;;;1.00;;
68479;SDS011;55469;48.934;12.050;2023-01-16T08:40:00;1.52;;;1.00;;
68479;SDS011;55469;48.934;12.050;2023-01-16T08:42:28;1.15;;;1.00;;
68479;SDS011;55469;48.934;12.050;2023-01-16T08:45:12;1.47;;;0.93;;
68479;SDS011;55469;48.934;12.050;2023-01-16T08:47:57;1.02;;;0.90;;
68479;SDS011;55469;48.934;12.050;2023-01-16T08:50:44;1.15;;;0.90;;
68479;SDS011;55469;48.934;12.050;2023-01-16T08:53:30;1.15;;;1.00;;
68479;SDS011;55469;48.934;12.050;2023-01-16T08:55:55;1.17;;;0.88;;
68479;SDS011;55469;48.934;12.050;2023-01-16T08:58:21;0.90;;;0.80;;
68479;SDS011;55469;48.934;12.050;2023-01-16T09:00:47;1.20;;;0.88;;
68479;SDS011;55469;48.934;12.050;2023-01-16T09:03:14;1.67;;;0.90;;
68479;SDS011;55469;48.934;12.050;2023-01-16T09:05:42;1.55;;;0.90;;
68479;SDS011;55469;48.934;12.050;2023-01-16T09:08:08;3.22;;;0.90;;
68479;SDS011;55469;48.934;12.050;2023-01-16T09:10:34;1.15;;;0.80;;
68479;SDS011;55469;48.934;12.050;2023-01-16T09:12:59;1.05;;;0.85;;
68479;SDS011;55469;48.934;12.050;2023-01-16T09:15:43;1.00;;;0.90;;
68479;SDS011;55469;48.934;12.050;2023-01-16T09:18:09;1.25;;;1.00;;
68479;SDS011;55469;48.934;12.050;2023-01-16T09:20:35;0.88;;;0.80;;
68479;SDS011;55469;48.934;12.050;2023-01-16T09:23:01;1.58;;;0.90;;
68479;SDS011;55469;48.934;12.050;2023-01-16T09:25:29;0.85;;;0.80;;
68479;SDS011;55469;48.934;12.050;2023-01-16T09:27:56;0.90;;;0.80;;
68479;SDS011;55469;48.934;12.050;2023-01-16T09:30:22;0.95;;;0.80;;
68479;SDS011;55469;48.934;12.050;2023-01-16T09:32:50;0.90;;;0.80;;
68479;SDS011;55469;48.934;12.050;2023-01-16T09:35:16;1.27;;;0.90;;
68479;SDS011;55469;48.934;12.050;2023-01-16T09:37:42;0.95;;;0.80;;
68479;SDS011;55469;48.934;12.050;2023-01-16T09:40:10;1.25;;;0.80;;
68479;SDS011;55469;48.934;12.050;2023-01-16T09:45:34;1.80;;;1.00;;
68479;SDS011;55469;48.934;12.050;2023-01-16T09:48:08;0.82;;;0.80;;
68479;SDS011;55469;48.934;12.050;2023-01-16T09:51:17;1.08;;;0.80;;
68479;SDS011;55469;48.934;12.050;2023-01-16T09:53:52;1.85;;;0.88;;
68479;SDS011;55469;48.934;12.050;2023-01-16T09:56:46;2.55;;;0.70;;
68479;SDS011;55469;48.934;12.050;2023-01-16T10:00:01;2.40;;;0.80;;
68479;SDS011;55469;48.934;12.050;2023-01-16T10:02:33;1.33;;;0.70;;
68479;SDS011;55469;48.934;12.050;2023-01-16T10:05:00;2.03;;;0.80;;
68479;SDS011;55469;48.934;12.050;2023-01-16T10:10:19;1.20;;;0.80;;
68479;SDS011;55469;48.934;12.050;2023-01-16T10:18:49;1.17;;;0.70;;
68479;SDS011;55469;48.934;12.050;2023-01-16T10:25:13;3.08;;;0.80;;
68479;SDS011;55469;48.934;12.050;2023-01-16T10:30:36;1.10;;;0.70;;
68479;SDS011;55469;48.934;12.050;2023-01-16T10:33:24;1.02;;;0.80;;
68479;SDS011;55469;48.934;12.050;2023-01-16T10:36:05;1.83;;;1.17;;
68479;SDS011;55469;48.934;12.050;2023-01-16T10:47:47;1.05;;;0.80;;
68479;SDS011;55469;48.934;12.050;2023-01-16T10:50:31;1.13;;;0.90;;
68479;SDS011;55469;48.934;12.050;2023-01-16T10:52:57;3.33;;;0.60;;
68479;SDS011;55469;48.934;12.050;2023-01-16T10:55:23;1.30;;;0.80;;
68479;SDS011;55469;48.934;12.050;2023-01-16T10:57:54;1.98;;;0.88;;
68479;SDS011;55469;48.934;12.050;2023-01-16T11:00:24;1.00;;;0.80;;
68479;SDS011;55469;48.934;12.050;2023-01-16T11:03:21;1.25;;;0.80;;
68479;SDS011;55469;48.934;12.050;2023-01-16T11:06:07;1.65;;;0.80;;
68479;SDS011;55469;48.934;12.050;2023-01-16T11:08:36;1.17;;;0.80;;
68479;SDS011;55469;48.934;12.050;2023-01-16T11:11:02;0.82;;;0.70;;
68479;SDS011;55469;48.934;12.050;2023-01-16T11:13:28;1.13;;;0.80;;
68479;SDS011;55469;48.934;12.050;2023-01-16T11:19:14;0.80;;;0.80;;
68479;SDS011;55469;48.934;12.050;2023-01-16T11:21:49;1.23;;;0.90;;
68479;SDS011;55469;48.934;12.050;2023-01-16T11:27:01;1.00;;;0.90;;
68479;SDS011;55469;48.934;12.050;2023-01-16T11:29:38;1.15;;;0.90;;
68479;SDS011;55469;48.934;12.050;2023-01-16T11:32:08;1.80;;;0.90;;
68479;SDS011;55469;48.934;12.050;2023-01-16T11:34:38;0.93;;;0.88;;
68479;SDS011;55469;48.934;12.050;2023-01-16T11:37:11;1.80;;;1.00;;
68479;SDS011;55469;48.934;12.050;2023-01-16T11:39:40;1.45;;;0.88;;
68479;SDS011;55469;48.934;12.050;2023-01-16T11:42:12;1.05;;;0.95;;
68479;SDS011;55469;48.934;12.050;2023-01-16T11:44:57;1.13;;;0.85;;
68479;SDS011;55469;48.934;12.050;2023-01-16T11:47:44;0.80;;;0.80;;
68479;SDS011;55469;48.934;12.050;2023-01-16T11:52:53;1.00;;;0.70;;
68479;SDS011;55469;48.934;12.050;2023-01-16T11:55:18;1.10;;;0.90;;
68479;SDS011;55469;48.934;12.050;2023-01-16T11:58:01;1.80;;;0.88;;
68479;SDS011;55469;48.934;12.050;2023-01-16T12:01:03;0.80;;;0.80;;
68479;SDS011;55469;48.934;12.050;2023-01-16T12:04:24;1.08;;;0.70;;
68479;SDS011;55469;48.934;12.050;2023-01-16T12:12:33;1.20;;;0.70;;
68479;SDS011;55469;48.934;12.050;2023-01-16T12:15:31;1.00;;;0.90;;
68479;SDS011;55469;48.934;12.050;2023-01-16T12:18:19;1.85;;;1.00;;
68479;SDS011;55469;48.934;12.050;2023-01-16T12:21:03;1.10;;;0.80;;
68479;SDS011;55469;48.934;12.050;2023-01-16T12:27:09;1.40;;;0.98;;
68479;SDS011;55469;48.934;12.050;2023-01-16T12:30:17;1.58;;;0.88;;
68479;SDS011;55469;48.934;12.050;2023-01-16T12:33:27;1.98;;;0.90;;
68479;SDS011;55469;48.934;12.050;2023-01-16T12:44:53;1.20;;;1.00;;
68479;SDS011;55469;48.934;12.050;2023-01-16T12:54:11;1.08;;;0.85;;
68479;SDS011;55469;48.934;12.050;2023-01-16T12:59:44;0.80;;;0.80;;
68479;SDS011;55469;48.934;12.050;2023-01-16T13:07:29;1.90;;;0.93;;
68479;SDS011;55469;48.934;12.050;2023-01-16T13:12:56;1.40;;;1.00;;
68479;SDS011;55469;48.934;12.050;2023-01-16T13:15:43;0.73;;;0.70;;
68479;SDS011;55469;48.934;12.050;2023-01-16T13:18:14;0.85;;;0.80;;
68479;SDS011;55469;48.934;12.050;2023-01-16T13:20:47;1.15;;;0.90;;
68479;SDS011;55469;48.934;12.050;2023-01-16T13:23:19;0.75;;;0.60;;
68479;SDS011;55469;48.934;12.050;2023-01-16T13:25:53;1.08;;;0.80;;
68479;SDS011;55469;48.934;12.050;2023-01-16T13:31:24;0.90;;;0.70;;
68479;SDS011;55469;48.934;12.050;2023-01-16T13:43:32;1.48;;;0.73;;
68479;SDS011;55469;48.934;12.050;2023-01-16T13:46:23;0.82;;;0.80;;
68479;SDS011;55469;48.934;12.050;2023-01-16T13:48:53;0.95;;;0.70;;
68479;SDS011;55469;48.934;12.050;2023-01-16T13:51:26;1.13;;;0.90;;
68479;SDS011;55469;48.934;12.050;2023-01-16T13:53:54;0.70;;;0.70;;
68479;SDS011;55469;48.934;12.050;2023-01-16T13:56:24;0.98;;;0.77;;
68479;SDS011;55469;48.934;12.050;2023-01-16T13:59:02;0.70;;;0.70;;
68479;SDS011;55469;48.934;12.050;2023-01-16T14:01:34;0.70;;;0.60;;
68479;SDS011;55469;48.934;12.050;2023-01-16T14:04:15;0.77;;;0.70;;
68479;SDS011;55469;48.934;12.050;2023-01-16T14:06:57;1.10;;;0.80;;
68479;SDS011;55469;48.934;12.050;2023-01-16T14:15:55;0.60;;;0.60;;
68479;SDS011;55469;48.934;12.050;2023-01-16T14:24:02;0.75;;;0.70;;
68479;SDS011;55469;48.934;12.050;2023-01-16T14:26:39;0.88;;;0.73;;
68479;SDS011;55469;48.934;12.050;2023-01-16T14:32:02;0.70;;;0.70;;
68479;SDS011;55469;48.934;12.050;2023-01-16T14:39:55;0.75;;;0.70;;
68479;SDS011;55469;48.934;12.050;2023-01-16T14:42:38;0.85;;;0.80;;
68479;SDS011;55469;48.934;12.050;2023-01-16T14:45:37;0.93;;;0.80;;
68479;SDS011;55469;48.934;12.050;2023-01-16T14:54:05;0.63;;;0.63;;
68479;SDS011;55469;48.934;12.050;2023-01-16T14:56:58;0.80;;;0.70;;
68479;SDS011;55469;48.934;12.050;2023-01-16T14:59:34;0.60;;;0.60;;
68479;SDS011;55469;48.934;12.050;2023-01-16T15:02:41;0.70;;;0.70;;
68479;SDS011;55469;48.934;12.050;2023-01-16T15:05:18;0.90;;;0.70;;
68479;SDS011;55469;48.934;12.050;2023-01-16T15:08:14;0.80;;;0.50;;
68479;SDS011;55469;48.934;12.050;2023-01-16T15:11:24;0.65;;;0.60;;
68479;SDS011;55469;48.934;12.050;2023-01-16T15:14:15;0.70;;;0.70;;
68479;SDS011;55469;48.934;12.050;2023-01-16T15:19:59;1.40;;;0.82;;
68479;SDS011;55469;48.934;12.050;2023-01-16T15:22:48;0.70;;;0.70;;
68479;SDS011;55469;48.934;12.050;2023-01-16T15:31:15;0.65;;;0.65;;
68479;SDS011;55469;48.934;12.050;2023-01-16T15:33:58;0.90;;;0.75;;
68479;SDS011;55469;48.934;12.050;2023-01-16T15:36:38;0.70;;;0.70;;
68479;SDS011;55469;48.934;12.050;2023-01-16T15:53:24;0.95;;;0.60;;
68479;SDS011;55469;48.934;12.050;2023-01-16T15:56:01;0.68;;;0.65;;
68479;SDS011;55469;48.934;12.050;2023-01-16T15:58:29;0.63;;;0.60;;
68479;SDS011;55469;48.934;12.050;2023-01-16T16:01:00;0.70;;;0.60;;
68479;SDS011;55469;48.934;12.050;2023-01-16T16:03:37;0.90;;;0.70;;
68479;SDS011;55469;48.934;12.050;2023-01-16T16:06:12;1.00;;;0.75;;
68479;SDS011;55469;48.934;12.050;2023-01-16T16:08:41;1.10;;;0.73;;
68479;SDS011;55469;48.934;12.050;2023-01-16T16:11:18;0.63;;;0.63;;
68479;SDS011;55469;48.934;12.050;2023-01-16T16:14:06;0.80;;;0.80;;
68479;SDS011;55469;48.934;12.050;2023-01-16T16:17:05;0.73;;;0.68;;
68479;SDS011;55469;48.934;12.050;2023-01-16T16:28:02;0.80;;;0.70;;
68479;SDS011;55469;48.934;12.050;2023-01-16T16:30:30;0.50;;;0.50;;
68479;SDS011;55469;48.934;12.050;2023-01-16T16:32:56;1.98;;;0.80;;
68479;SDS011;55469;48.934;12.050;2023-01-16T16:37:50;0.98;;;0.90;;
68479;SDS011;55469;48.934;12.050;2023-01-16T16:40:20;1.13;;;0.73;;
68479;SDS011;55469;48.934;12.050;2023-01-16T16:42:47;1.05;;;0.80;;
68479;SDS011;55469;48.934;12.050;2023-01-16T16:45:19;1.05;;;0.88;;
68479;SDS011;55469;48.934;12.050;2023-01-16T16:50:48;0.82;;;0.70;;
68479;SDS011;55469;48.934;12.050;2023-01-16T16:53:15;0.95;;;0.80;;
68479;SDS011;55469;48.934;12.050;2023-01-16T16:55:51;0.68;;;0.60;;
68479;SDS011;55469;48.934;12.050;2023-01-16T16:58:21;0.98;;;0.80;;
68479;SDS011;55469;48.934;12.050;2023-01-16T17:00:49;0.70;;;0.70;;
68479;SDS011;55469;48.934;12.050;2023-01-16T17:03:20;0.95;;;0.80;;
68479;SDS011;55469;48.934;12.050;2023-01-16T17:05:48;1.55;;;0.70;;
68479;SDS011;55469;48.934;12.050;2023-01-16T17:08:24;0.82;;;0.80;;
68479;SDS011;55469;48.934;12.050;2023-01-16T17:10:54;1.10;;;1.00;;
68479;SDS011;55469;48.934;12.050;2023-01-16T17:13:21;0.88;;;0.82;;
68479;SDS011;55469;48.934;12.050;2023-01-16T17:15:50;1.10;;;0.80;;
68479;SDS011;55469;48.934;12.050;2023-01-16T17:18:19;2.25;;;1.13;;
68479;SDS011;55469;48.934;12.050;2023-01-16T17:20:47;0.85;;;0.80;;
68479;SDS011;55469;48.934;12.050;2023-01-16T17:23:14;0.95;;;0.85;;
68479;SDS011;55469;48.934;12.050;2023-01-16T17:25:41;1.15;;;0.85;;
68479;SDS011;55469;48.934;12.050;2023-01-16T17:28:08;1.10;;;0.80;;
68479;SDS011;55469;48.934;12.050;2023-01-16T17:30:35;1.15;;;0.90;;
68479;SDS011;55469;48.934;12.050;2023-01-16T17:33:02;1.08;;;0.90;;
68479;SDS011;55469;48.934;12.050;2023-01-16T17:35:41;1.08;;;0.88;;
68479;SDS011;55469;48.934;12.050;2023-01-16T17:38:23;1.10;;;0.82;;
68479;SDS011;55469;48.934;12.050;2023-01-16T17:40:50;1.17;;;0.80;;
68479;SDS011;55469;48.934;12.050;2023-01-16T17:43:17;1.27;;;1.00;;
68479;SDS011;55469;48.934;12.050;2023-01-16T17:46:22;0.90;;;0.77;;
68479;SDS011;55469;48.934;12.050;2023-01-16T17:48:49;0.70;;;0.70;;
68479;SDS011;55469;48.934;12.050;2023-01-16T17:51:15;1.23;;;0.82;;
68479;SDS011;55469;48.934;12.050;2023-01-16T17:53:49;0.98;;;0.90;;
68479;SDS011;55469;48.934;12.050;2023-01-16T17:56:16;2.42;;;1.08;;
68479;SDS011;55469;48.934;12.050;2023-01-16T17:58:43;1.23;;;1.00;;
68479;SDS011;55469;48.934;12.050;2023-01-16T18:01:10;1.45;;;1.00;;
68479;SDS011;55469;48.934;12.050;2023-01-16T18:03:38;1.25;;;0.90;;
68479;SDS011;55469;48.934;12.050;2023-01-16T18:06:06;1.42;;;1.17;;
68479;SDS011;55469;48.934;12.050;2023-01-16T18:08:33;1.45;;;1.00;;
68479;SDS011;55469;48.934;12.050;2023-01-16T18:11:03;1.58;;;1.10;;
68479;SDS011;55469;48.934;12.050;2023-01-16T18:13:49;1.30;;;0.90;;
68479;SDS011;55469;48.934;12.050;2023-01-16T18:16:35;1.63;;;1.10;;
68479;SDS011;55469;48.934;12.050;2023-01-16T18:19:20;1.52;;;0.90;;
68479;SDS011;55469;48.934;12.050;2023-01-16T18:21:46;1.88;;;1.08;;
68479;SDS011;55469;48.934;12.050;2023-01-16T18:24:31;2.17;;;1.20;;
68479;SDS011;55469;48.934;12.050;2023-01-16T18:26:59;1.10;;;1.00;;
68479;SDS011;55469;48.934;12.050;2023-01-16T18:29:28;2.25;;;1.27;;
68479;SDS011;55469;48.934;12.050;2023-01-16T18:31:54;1.38;;;1.10;;
68479;SDS011;55469;48.934;12.050;2023-01-16T18:34:39;1.48;;;1.08;;
68479;SDS011;55469;48.934;12.050;2023-01-16T18:37:05;1.55;;;1.17;;
68479;SDS011;55469;48.934;12.050;2023-01-16T18:39:30;1.58;;;1.10;;
68479;SDS011;55469;48.934;12.050;2023-01-16T18:42:15;2.40;;;1.20;;
68479;SDS011;55469;48.934;12.050;2023-01-16T18:44:59;1.52;;;1.17;;
68479;SDS011;55469;48.934;12.050;2023-01-16T18:47:43;1.95;;;1.30;;
68479;SDS011;55469;48.934;12.050;2023-01-16T18:50:27;1.52;;;1.08;;
68479;SDS011;55469;48.934;12.050;2023-01-16T18:53:39;1.70;;;1.23;;
68479;SDS011;55469;48.934;12.050;2023-01-16T18:56:28;2.22;;;1.40;;
68479;SDS011;55469;48.934;12.050;2023-01-16T18:59:19;1.55;;;1.33;;
68479;SDS011;55469;48.934;12.050;2023-01-16T19:04:40;1.60;;;1.30;;
68479;SDS011;55469;48.934;12.050;2023-01-16T19:07:07;1.10;;;1.00;;
68479;SDS011;55469;48.934;12.050;2023-01-16T19:09:42;2.17;;;1.30;;
68479;SDS011;55469;48.934;12.050;2023-01-16T19:12:09;2.10;;;1.38;;
68479;SDS011;55469;48.934;12.050;2023-01-16T19:14:36;1.92;;;1.50;;
68479;SDS011;55469;48.934;12.050;2023-01-16T19:17:05;1.98;;;1.42;;
68479;SDS011;55469;48.934;12.050;2023-01-16T19:19:31;1.83;;;1.30;;
68479;SDS011;55469;48.934;12.050;2023-01-16T19:21:57;1.90;;;1.35;;
68479;SDS011;55469;48.934;12.050;2023-01-16T19:24:24;1.38;;;1.10;;
68479;SDS011;55469;48.934;12.050;2023-01-16T19:26:53;1.70;;;1.20;;
68479;SDS011;55469;48.934;12.050;2023-01-16T19:29:20;1.50;;;1.23;;
68479;SDS011;55469;48.934;12.050;2023-01-16T19:31:47;2.15;;;1.50;;
68479;SDS011;55469;48.934;12.050;2023-01-16T19:34:14;1.70;;;1.23;;
68479;SDS011;55469;48.934;12.050;2023-01-16T19:36:41;2.50;;;1.40;;
68479;SDS011;55469;48.934;12.050;2023-01-16T19:39:07;1.52;;;1.15;;
68479;SDS011;55469;48.934;12.050;2023-01-16T19:41:34;1.95;;;1.40;;
68479;SDS011;55469;48.934;12.050;2023-01-16T19:44:20;2.70;;;1.60;;
68479;SDS011;55469;48.934;12.050;2023-01-16T19:47:04;2.55;;;1.40;;
68479;SDS011;55469;48.934;12.050;2023-01-16T19:49:31;1.55;;;1.40;;
68479;SDS011;55469;48.934;12.050;2023-01-16T19:51:57;2.45;;;1.52;;
68479;SDS011;55469;48.934;12.050;2023-01-16T19:54:24;1.65;;;1.42;;
68479;SDS011;55469;48.934;12.050;2023-01-16T19:56:52;1.83;;;1.17;;
68479;SDS011;55469;48.934;12.050;2023-01-16T19:59:18;1.90;;;1.30;;
68479;SDS011;55469;48.934;12.050;2023-01-16T20:04:22;2.05;;;1.20;;
68479;SDS011;55469;48.934;12.050;2023-01-16T20:06:48;1.65;;;1.00;;
68479;SDS011;55469;48.934;12.050;2023-01-16T20:09:15;1.88;;;1.25;;
68479;SDS011;55469;48.934;12.050;2023-01-16T20:11:41;0.80;;;0.80;;
68479;SDS011;55469;48.934;12.050;2023-01-16T20:14:26;1.23;;;0.90;;
68479;SDS011;55469;48.934;12.050;2023-01-16T20:16:52;1.90;;;1.05;;
68479;SDS011;55469;48.934;12.050;2023-01-16T20:19:18;1.27;;;0.98;;
68479;SDS011;55469;48.934;12.050;2023-01-16T20:21:44;1.38;;;1.00;;
68479;SDS011;55469;48.934;12.050;2023-01-16T20:24:10;1.58;;;1.13;;
68479;SDS011;55469;48.934;12.050;2023-01-16T20:26:36;1.40;;;1.00;;
68479;SDS011;55469;48.934;12.050;2023-01-16T20:29:03;1.20;;;1.00;;
68479;SDS011;55469;48.934;12.050;2023-01-16T20:31:29;1.52;;;0.80;;
68479;SDS011;55469;48.934;12.050;2023-01-16T20:33:55;1.20;;;1.00;;
68479;SDS011;55469;48.934;12.050;2023-01-16T20:36:22;1.17;;;1.00;;
68479;SDS011;55469;48.934;12.050;2023-01-16T20:38:49;1.58;;;0.80;;
68479;SDS011;55469;48.934;12.050;2023-01-16T20:41:17;1.45;;;0.95;;
68479;SDS011;55469;48.934;12.050;2023-01-16T20:44:04;1.63;;;0.90;;
68479;SDS011;55469;48.934;12.050;2023-01-16T20:46:57;2.05;;;0.90;;
68479;SDS011;55469;48.934;12.050;2023-01-16T20:49:24;2.25;;;0.90;;